Time;durP1;ratioP1;P1;durP2;ratioP2;P2;SDS_P1;SDS_P2;PMS_P1;PMS_P2;Temp;Humidity;BMP_temperature;BMP_pressure;BME280_temperature;BME280_humidity;BME280_pressure;Samples;Min_cycle;Max_cycle;Signal;HPM_P1;HPM_P2
2023/04/26 00:00:47;;;;;;;0.10;0.10;;;3.60;99.90;;;;;;5111032;28;20032;-64
2023/04/26 00:03:13;;;;;;;0.20;0.20;;;3.70;99.90;;;;;;5109134;28;20477;-64
2023/04/26 00:05:39;;;;;;;0.60;0.57;;;3.70;99.90;;;;;;5110971;28;20377;-64
2023/04/26 00:08:05;;;;;;;0.30;0.28;;;3.80;99.90;;;;;;5092444;28;20051;-64
2023/04/26 00:10:31;;;;;;;0.30;0.30;;;3.90;99.90;;;;;;5108882;28;20048;-64
2023/04/26 00:12:57;;;;;;;0.75;0.30;;;3.90;99.90;;;;;;5092083;28;20047;-64
2023/04/26 00:15:23;;;;;;;0.10;0.10;;;3.90;99.90;;;;;;5110340;28;20040;-64
2023/04/26 00:17:49;;;;;;;0.28;0.28;;;4.00;99.90;;;;;;5110057;28;20088;-64
2023/04/26 00:20:15;;;;;;;4.22;0.63;;;4.00;99.90;;;;;;5109441;28;20055;-64
2023/04/26 00:22:41;;;;;;;0.52;0.32;;;4.10;99.90;;;;;;5109350;28;20050;-64
2023/04/26 00:25:07;;;;;;;0.25;0.25;;;4.10;99.90;;;;;;5108594;28;20047;-64
2023/04/26 00:27:33;;;;;;;0.10;0.10;;;4.20;99.90;;;;;;5092184;28;20375;-64
2023/04/26 00:29:59;;;;;;;0.20;0.20;;;4.20;99.90;;;;;;5110607;28;20075;-64
2023/04/26 00:32:25;;;;;;;0.20;0.20;;;4.20;99.90;;;;;;5108463;28;20769;-64
2023/04/26 00:34:50;;;;;;;0.30;0.30;;;4.20;99.90;;;;;;5109144;28;20035;-64
2023/04/26 00:37:16;;;;;;;0.25;0.25;;;4.20;99.90;;;;;;5092094;28;20071;-64
2023/04/26 00:39:42;;;;;;;0.20;0.20;;;4.10;99.90;;;;;;5108491;28;20032;-64
2023/04/26 00:42:08;;;;;;;0.22;0.22;;;3.90;99.90;;;;;;5109077;28;20044;-64
2023/04/26 00:44:33;;;;;;;0.45;0.45;;;3.90;99.90;;;;;;5108158;28;20046;-64
2023/04/26 00:47:00;;;;;;;0.57;0.20;;;3.80;99.90;;;;;;5109056;28;20050;-64
2023/04/26 00:49:26;;;;;;;0.20;0.20;;;3.70;99.90;;;;;;5109143;28;20086;-64
2023/04/26 00:51:52;;;;;;;0.20;0.20;;;3.50;99.90;;;;;;5110047;28;20075;-64
2023/04/26 00:54:19;;;;;;;0.40;0.28;;;3.40;99.90;;;;;;5108970;28;20504;-64
2023/04/26 00:56:46;;;;;;;0.10;0.10;;;3.20;99.90;;;;;;5109165;28;20362;-64
2023/04/26 00:59:12;;;;;;;0.20;0.20;;;3.10;99.90;;;;;;5109858;28;20039;-64
2023/04/26 01:01:39;;;;;;;0.22;0.22;;;3.00;99.90;;;;;;5108859;28;20046;-64
2023/04/26 01:04:05;;;;;;;0.40;0.38;;;3.00;99.90;;;;;;5108824;28;20131;-64
2023/04/26 01:06:33;;;;;;;0.20;0.20;;;3.00;99.90;;;;;;5091200;28;20122;-64
2023/04/26 01:09:04;;;;;;;0.95;0.20;;;2.90;99.90;;;;;;5109001;28;20065;-64
2023/04/26 01:11:31;;;;;;;0.43;0.28;;;3.00;99.90;;;;;;5108712;28;20092;-64
2023/04/26 01:13:57;;;;;;;2.25;0.32;;;3.00;99.90;;;;;;5109801;28;20040;-64
2023/04/26 01:16:24;;;;;;;0.40;0.30;;;3.00;99.90;;;;;;5108568;28;20040;-64
2023/04/26 01:18:51;;;;;;;0.50;0.35;;;2.90;99.90;;;;;;5108690;28;20119;-64
2023/04/26 01:21:21;;;;;;;0.25;0.20;;;3.00;99.90;;;;;;5108479;28;20071;-64
2023/04/26 01:23:48;;;;;;;0.10;0.10;;;3.10;99.90;;;;;;5091812;28;20552;-64
2023/04/26 01:26:14;;;;;;;0.30;0.30;;;3.10;99.90;;;;;;5091614;28;20096;-64
2023/04/26 01:28:40;;;;;;;0.77;0.35;;;3.10;99.90;;;;;;5108105;28;20050;-64
2023/04/26 01:31:06;;;;;;;0.32;0.32;;;3.10;99.90;;;;;;5108709;28;20040;-64
2023/04/26 01:33:32;;;;;;;0.13;0.13;;;3.10;99.90;;;;;;5108497;28;20474;-64
2023/04/26 01:35:57;;;;;;;2.28;0.68;;;3.10;99.90;;;;;;5108431;28;20036;-64
2023/04/26 01:38:23;;;;;;;0.95;0.30;;;3.10;99.90;;;;;;5108703;28;20051;-64
2023/04/26 01:40:49;;;;;;;0.10;0.10;;;3.10;99.90;;;;;;5110813;28;20409;-64
2023/04/26 01:43:17;;;;;;;0.10;0.10;;;3.10;99.90;;;;;;5112424;28;20035;-65
2023/04/26 01:45:48;;;;;;;0.10;0.10;;;3.10;99.90;;;;;;5113298;28;20717;-64
2023/04/26 01:48:14;;;;;;;0.45;0.45;;;3.00;99.90;;;;;;5112490;28;20489;-64
2023/04/26 01:50:40;;;;;;;0.20;0.20;;;3.00;99.90;;;;;;5113480;28;20042;-64
2023/04/26 01:53:06;;;;;;;0.15;0.15;;;3.00;99.90;;;;;;5113558;28;20384;-64
2023/04/26 01:55:33;;;;;;;0.63;0.22;;;3.00;99.90;;;;;;5112798;28;20063;-64
2023/04/26 01:57:59;;;;;;;0.20;0.20;;;3.00;99.90;;;;;;5113359;28;20473;-64
2023/04/26 02:00:27;;;;;;;2.35;0.95;;;2.90;99.90;;;;;;5111795;28;20035;-64
2023/04/26 02:02:56;;;;;;;0.30;0.30;;;2.90;99.90;;;;;;5111112;28;20698;-64
2023/04/26 02:05:23;;;;;;;0.30;0.30;;;2.90;99.90;;;;;;5094666;28;20043;-64
2023/04/26 02:07:49;;;;;;;0.20;0.20;;;2.90;99.90;;;;;;5111669;28;20078;-64
2023/04/26 02:10:15;;;;;;;0.20;0.20;;;2.90;99.90;;;;;;5111237;28;20201;-64
2023/04/26 02:12:41;;;;;;;1.70;0.20;;;2.80;99.90;;;;;;5112564;28;20139;-64
2023/04/26 02:15:08;;;;;;;0.13;0.13;;;2.80;99.90;;;;;;5111726;28;20043;-64
2023/04/26 02:17:34;;;;;;;0.20;0.20;;;2.80;99.90;;;;;;5110677;28;20051;-64
2023/04/26 02:19:59;;;;;;;7.43;0.43;;;2.70;99.90;;;;;;5111165;28;20054;-64
2023/04/26 02:22:25;;;;;;;0.20;0.20;;;2.60;99.90;;;;;;5111803;28;20036;-64
2023/04/26 02:24:51;;;;;;;0.30;0.22;;;2.70;99.90;;;;;;5110966;28;20469;-64
2023/04/26 02:27:18;;;;;;;0.47;0.28;;;2.60;99.90;;;;;;5111545;28;20114;-65
2023/04/26 02:29:44;;;;;;;0.20;0.20;;;2.60;99.90;;;;;;5112205;28;20047;-64
2023/04/26 02:32:10;;;;;;;0.10;0.10;;;2.60;99.90;;;;;;5112326;28;20047;-64
2023/04/26 02:34:36;;;;;;;0.55;0.30;;;2.50;99.90;;;;;;5111083;28;20039;-64
2023/04/26 02:37:03;;;;;;;0.20;0.20;;;2.60;99.90;;;;;;5110654;28;20047;-64
2023/04/26 02:39:28;;;;;;;0.20;0.20;;;2.60;99.90;;;;;;5111013;28;20040;-64
2023/04/26 02:41:54;;;;;;;0.25;0.20;;;2.60;99.90;;;;;;5112275;28;20055;-64
2023/04/26 02:44:20;;;;;;;0.68;0.65;;;2.70;99.90;;;;;;5111996;28;20043;-64
2023/04/26 02:46:46;;;;;;;0.30;0.30;;;2.70;99.90;;;;;;5110833;28;20068;-64
2023/04/26 02:49:11;;;;;;;0.35;0.35;;;2.80;99.90;;;;;;5110788;28;20248;-64
2023/04/26 02:51:37;;;;;;;1.00;0.47;;;2.90;99.90;;;;;;5109476;28;20665;-64
2023/04/26 02:54:03;;;;;;;0.82;0.52;;;2.90;99.90;;;;;;5093851;28;20036;-64
2023/04/26 02:56:29;;;;;;;0.20;0.20;;;2.90;99.90;;;;;;5112423;28;20069;-64
2023/04/26 02:58:55;;;;;;;0.20;0.20;;;2.90;99.90;;;;;;5093373;28;20035;-64
2023/04/26 03:01:21;;;;;;;2.28;0.50;;;2.90;99.90;;;;;;5110825;28;20126;-64
2023/04/26 03:03:46;;;;;;;0.28;0.28;;;2.90;99.90;;;;;;5111834;28;20082;-64
2023/04/26 03:06:12;;;;;;;0.60;0.40;;;2.90;99.90;;;;;;5111437;28;20130;-64
2023/04/26 03:08:38;;;;;;;0.20;0.10;;;2.90;99.90;;;;;;5093762;28;20039;-64
2023/04/26 03:11:04;;;;;;;3.72;0.52;;;2.90;99.90;;;;;;5111510;28;20489;-64
2023/04/26 03:13:29;;;;;;;0.52;0.20;;;2.90;99.90;;;;;;5091614;28;20051;-64
2023/04/26 03:15:55;;;;;;;0.65;0.43;;;2.90;99.90;;;;;;5090700;28;20032;-64
2023/04/26 03:18:21;;;;;;;0.55;0.40;;;3.00;99.90;;;;;;5090025;28;20074;-64
2023/04/26 03:20:47;;;;;;;9.15;0.43;;;3.10;99.90;;;;;;5088879;28;20069;-64
2023/04/26 03:23:13;;;;;;;1.17;0.32;;;3.10;99.90;;;;;;5089722;28;20048;-64
2023/04/26 03:25:38;;;;;;;0.57;0.38;;;3.10;99.90;;;;;;5089407;28;20066;-64
2023/04/26 03:28:04;;;;;;;0.68;0.25;;;3.10;99.90;;;;;;5091455;28;20040;-65
2023/04/26 03:30:30;;;;;;;0.68;0.35;;;3.10;99.90;;;;;;5091012;28;20486;-64
2023/04/26 03:32:56;;;;;;;0.55;0.47;;;3.10;99.90;;;;;;5090329;28;20041;-64
2023/04/26 03:35:22;;;;;;;1.52;0.30;;;3.10;99.90;;;;;;5089565;28;20032;-64
2023/04/26 03:37:48;;;;;;;1.15;0.52;;;3.10;99.90;;;;;;5091016;28;20058;-64
2023/04/26 03:40:15;;;;;;;0.30;0.30;;;3.00;99.90;;;;;;5090213;28;20040;-64
2023/04/26 03:42:41;;;;;;;3.45;0.30;;;3.00;99.90;;;;;;5089805;28;20385;-65
2023/04/26 03:45:08;;;;;;;0.80;0.30;;;3.10;99.90;;;;;;5089361;28;20047;-64
2023/04/26 03:47:33;;;;;;;0.40;0.30;;;3.10;99.90;;;;;;5088713;28;20048;-64
2023/04/26 03:50:00;;;;;;;0.10;0.10;;;3.10;99.90;;;;;;5089462;28;20040;-65
2023/04/26 03:52:25;;;;;;;0.10;0.10;;;3.10;99.90;;;;;;5090452;28;20051;-65
2023/04/26 03:54:51;;;;;;;0.20;0.20;;;3.10;99.90;;;;;;5088513;28;20520;-65
2023/04/26 03:57:17;;;;;;;0.13;0.13;;;3.00;99.90;;;;;;5090474;28;20036;-64
2023/04/26 03:59:43;;;;;;;0.20;0.15;;;3.00;99.90;;;;;;5072642;28;20244;-65
2023/04/26 04:02:08;;;;;;;0.20;0.20;;;2.90;99.90;;;;;;5087947;28;20390;-64
2023/04/26 04:04:34;;;;;;;0.20;0.20;;;2.90;99.90;;;;;;5089422;28;20402;-64
2023/04/26 04:07:00;;;;;;;0.28;0.28;;;2.80;99.90;;;;;;5090585;28;20032;-64
2023/04/26 04:09:26;;;;;;;0.20;0.20;;;2.70;99.90;;;;;;5090019;28;20115;-64
2023/04/26 04:11:51;;;;;;;0.32;0.30;;;2.70;99.90;;;;;;5088730;28;20097;-64
2023/04/26 04:14:17;;;;;;;0.30;0.20;;;2.70;99.90;;;;;;5089123;28;20040;-64
2023/04/26 04:16:43;;;;;;;1.55;0.45;;;2.70;99.90;;;;;;5088524;28;20466;-64
2023/04/26 04:19:09;;;;;;;0.52;0.40;;;2.60;99.90;;;;;;5089216;28;20366;-64
2023/04/26 04:21:34;;;;;;;0.20;0.20;;;2.50;99.90;;;;;;5089644;28;20506;-64
2023/04/26 04:24:00;;;;;;;0.13;0.13;;;2.50;99.90;;;;;;5088899;28;20071;-64
2023/04/26 04:26:29;;;;;;;0.20;0.20;;;2.50;99.90;;;;;;5071876;28;20044;-64
2023/04/26 04:28:55;;;;;;;1.10;0.50;;;2.50;99.90;;;;;;5071447;28;20047;-64
2023/04/26 04:31:21;;;;;;;0.22;0.22;;;2.50;99.90;;;;;;5090422;28;20036;-65
2023/04/26 04:33:47;;;;;;;0.10;0.10;;;2.60;99.90;;;;;;5089076;28;20386;-65
2023/04/26 04:36:16;;;;;;;4.78;0.55;;;2.60;99.90;;;;;;5089792;28;20398;-65
2023/04/26 04:38:42;;;;;;;1.35;0.40;;;2.70;99.90;;;;;;5088715;28;20061;-65
2023/04/26 04:41:09;;;;;;;2.72;0.55;;;2.90;99.90;;;;;;5088673;28;20044;-65
2023/04/26 04:43:35;;;;;;;0.20;0.20;;;3.10;99.90;;;;;;5071398;28;20088;-65
2023/04/26 04:46:00;;;;;;;0.40;0.30;;;3.40;99.90;;;;;;5088626;28;20118;-64
2023/04/26 04:48:26;;;;;;;0.65;0.63;;;3.50;99.90;;;;;;5090154;28;20158;-64
2023/04/26 04:50:52;;;;;;;4.40;0.63;;;3.60;99.90;;;;;;5088337;28;20131;-64
2023/04/26 04:53:18;;;;;;;3.88;0.52;;;3.70;99.90;;;;;;5090034;28;20048;-65
2023/04/26 04:55:43;;;;;;;0.50;0.50;;;3.80;99.90;;;;;;5089779;28;20033;-64
2023/04/26 04:58:09;;;;;;;0.95;0.43;;;3.80;99.90;;;;;;5088995;28;20094;-64
2023/04/26 05:00:36;;;;;;;0.22;0.22;;;3.90;99.90;;;;;;5071772;28;20512;-64
2023/04/26 05:03:03;;;;;;;0.22;0.22;;;4.00;99.90;;;;;;5088847;28;20403;-64
2023/04/26 05:05:30;;;;;;;0.63;0.30;;;4.00;99.90;;;;;;5089697;28;20574;-64
2023/04/26 05:07:55;;;;;;;4.80;0.65;;;4.10;99.90;;;;;;5088423;28;20686;-64
2023/04/26 05:10:21;;;;;;;0.45;0.20;;;4.10;99.90;;;;;;5090045;28;20036;-64
2023/04/26 05:12:47;;;;;;;0.80;0.25;;;4.20;99.90;;;;;;5088807;28;20501;-64
2023/04/26 05:15:13;;;;;;;0.55;0.38;;;4.30;99.90;;;;;;5093535;28;20032;-64
2023/04/26 05:17:38;;;;;;;0.50;0.43;;;4.40;99.90;;;;;;5092888;28;20133;-64
2023/04/26 05:20:06;;;;;;;0.30;0.20;;;4.50;99.90;;;;;;5092147;28;20071;-64
2023/04/26 05:22:35;;;;;;;0.75;0.45;;;4.50;99.90;;;;;;5093816;28;20040;-64
2023/04/26 05:25:00;;;;;;;0.30;0.30;;;4.60;99.90;;;;;;5091835;28;20047;-65
2023/04/26 05:27:27;;;;;;;0.57;0.25;;;4.60;99.90;;;;;;5075040;28;20093;-64
2023/04/26 05:29:53;;;;;;;0.47;0.40;;;4.60;99.90;;;;;;5092006;28;20058;-64
2023/04/26 05:32:21;;;;;;;0.10;0.10;;;4.60;99.90;;;;;;5093085;28;20044;-64
2023/04/26 05:34:50;;;;;;;0.10;0.10;;;4.70;99.90;;;;;;5110963;28;20051;-64
2023/04/26 05:37:16;;;;;;;0.52;0.25;;;4.70;99.90;;;;;;5129571;27;20032;-65
2023/04/26 05:39:42;;;;;;;0.20;0.20;;;4.70;99.90;;;;;;5110917;28;20565;-64
2023/04/26 05:42:08;;;;;;;0.47;0.32;;;4.70;99.90;;;;;;5110685;28;20053;-64
2023/04/26 05:44:34;;;;;;;0.25;0.15;;;4.80;99.90;;;;;;5108908;28;20039;-64
2023/04/26 05:47:00;;;;;;;1.25;0.50;;;4.90;99.90;;;;;;5107956;28;20055;-64
2023/04/26 05:49:26;;;;;;;0.55;0.50;;;5.10;99.90;;;;;;5124666;27;20043;-64
2023/04/26 05:51:52;;;;;;;1.85;0.68;;;5.30;99.90;;;;;;5106220;28;20040;-64
2023/04/26 05:54:17;;;;;;;1.30;0.70;;;5.50;99.90;;;;;;5111094;28;20044;-64
2023/04/26 05:56:43;;;;;;;2.83;0.20;;;5.70;99.90;;;;;;5111185;28;20043;-64
2023/04/26 05:59:09;;;;;;;3.50;0.75;;;5.90;99.90;;;;;;5110492;28;20075;-64
2023/04/26 06:01:35;;;;;;;0.38;0.30;;;6.10;99.90;;;;;;5110153;28;20131;-64
2023/04/26 06:04:00;;;;;;;0.65;0.40;;;6.30;99.90;;;;;;5110646;28;20118;-64
2023/04/26 06:06:26;;;;;;;2.15;0.40;;;6.50;99.90;;;;;;5103063;28;20507;-64
2023/04/26 06:08:52;;;;;;;1.85;1.05;;;6.70;99.90;;;;;;5089551;28;20093;-64
2023/04/26 06:11:18;;;;;;;0.55;0.30;;;6.90;99.90;;;;;;5092315;28;20036;-64
2023/04/26 06:13:44;;;;;;;1.00;0.63;;;7.00;99.90;;;;;;5089160;28;20079;-64
2023/04/26 06:16:10;;;;;;;0.70;0.50;;;7.00;99.90;;;;;;5092142;28;20043;-64
2023/04/26 06:18:36;;;;;;;0.40;0.30;;;7.10;99.90;;;;;;5089923;28;20134;-64
2023/04/26 06:21:02;;;;;;;0.35;0.30;;;7.30;99.90;;;;;;5088964;28;20410;-63
2023/04/26 06:23:27;;;;;;;0.57;0.30;;;7.30;99.90;;;;;;5089582;28;20047;-63
2023/04/26 06:25:53;;;;;;;1.10;0.35;;;7.30;99.90;;;;;;5088682;28;20047;-64
2023/04/26 06:28:19;;;;;;;0.88;0.40;;;7.50;99.90;;;;;;5102915;28;20050;-64
2023/04/26 06:30:45;;;;;;;0.65;0.40;;;7.40;99.90;;;;;;5109887;28;20075;-64
2023/04/26 06:33:10;;;;;;;0.68;0.45;;;7.30;99.90;;;;;;5097589;28;20126;-64
2023/04/26 06:35:40;;;;;;;0.50;0.30;;;7.50;99.90;;;;;;5090290;28;20035;-64
2023/04/26 06:38:06;;;;;;;0.52;0.30;;;7.60;99.90;;;;;;5092102;28;20036;-65
2023/04/26 06:40:32;;;;;;;0.68;0.25;;;7.70;99.90;;;;;;5090533;28;20043;-64
2023/04/26 06:42:58;;;;;;;0.32;0.30;;;7.90;99.90;;;;;;5089873;28;20075;-64
2023/04/26 06:45:24;;;;;;;0.50;0.22;;;7.90;99.90;;;;;;5090376;28;20044;-64
2023/04/26 06:47:53;;;;;;;1.55;0.43;;;7.90;99.90;;;;;;5090688;28;20040;-64
2023/04/26 06:50:19;;;;;;;2.37;0.67;;;7.80;99.90;;;;;;5088381;28;20181;-64
2023/04/26 06:52:45;;;;;;;1.10;0.73;;;7.70;99.90;;;;;;5090476;28;20040;-64
2023/04/26 06:55:10;;;;;;;0.40;0.28;;;7.60;99.90;;;;;;5090239;28;20040;-64
2023/04/26 06:57:36;;;;;;;2.03;0.60;;;7.60;99.90;;;;;;5088763;28;20131;-64
2023/04/26 07:00:03;;;;;;;0.20;0.20;;;7.70;99.90;;;;;;5089338;28;20562;-64
2023/04/26 07:02:29;;;;;;;1.88;0.40;;;7.80;99.90;;;;;;5089371;28;20040;-64
2023/04/26 07:04:55;;;;;;;0.20;0.20;;;7.90;99.90;;;;;;5088306;28;20040;-64
2023/04/26 07:07:20;;;;;;;0.90;0.40;;;8.00;99.90;;;;;;5089079;28;20047;-64
2023/04/26 07:09:46;;;;;;;1.77;0.47;;;8.10;99.90;;;;;;5089906;28;20044;-64
2023/04/26 07:12:13;;;;;;;0.73;0.45;;;8.10;99.90;;;;;;5089823;28;20109;-64
2023/04/26 07:14:39;;;;;;;0.50;0.32;;;8.20;99.90;;;;;;5090282;28;20431;-64
2023/04/26 07:17:06;;;;;;;0.52;0.30;;;8.20;99.90;;;;;;5089245;28;20532;-64
2023/04/26 07:19:32;;;;;;;0.63;0.38;;;8.30;99.90;;;;;;5088542;28;20047;-65
2023/04/26 07:21:57;;;;;;;0.30;0.22;;;8.40;99.90;;;;;;5088764;28;20044;-64
2023/04/26 07:24:23;;;;;;;1.15;0.43;;;8.50;99.90;;;;;;5088093;28;20158;-64
2023/04/26 07:26:49;;;;;;;1.13;0.35;;;8.50;99.90;;;;;;5088665;28;20097;-64
2023/04/26 07:29:15;;;;;;;0.82;0.65;;;8.50;99.90;;;;;;5089710;28;20054;-64
2023/04/26 07:31:40;;;;;;;0.55;0.22;;;8.50;99.90;;;;;;5088076;28;20043;-64
2023/04/26 07:34:06;;;;;;;0.47;0.17;;;8.50;99.90;;;;;;5088831;28;20036;-64
2023/04/26 07:36:32;;;;;;;0.57;0.20;;;8.60;99.90;;;;;;5088177;28;20448;-64
2023/04/26 07:38:57;;;;;;;0.20;0.20;;;8.60;99.90;;;;;;5089226;28;20042;-64
2023/04/26 07:41:23;;;;;;;0.15;0.10;;;8.70;99.90;;;;;;5088295;28;20131;-65
2023/04/26 07:43:49;;;;;;;1.85;0.22;;;8.70;99.90;;;;;;5088224;28;20040;-67
2023/04/26 07:46:15;;;;;;;0.47;0.38;;;8.70;99.90;;;;;;5087524;28;20036;-67
2023/04/26 07:48:40;;;;;;;0.43;0.30;;;8.80;99.90;;;;;;5088104;28;20113;-67
2023/04/26 07:51:08;;;;;;;0.10;0.10;;;8.80;99.90;;;;;;5088196;28;20122;-67
2023/04/26 07:53:34;;;;;;;0.20;0.20;;;8.80;99.90;;;;;;5087211;28;20113;-67
2023/04/26 07:55:59;;;;;;;0.20;0.20;;;8.90;99.90;;;;;;5089490;28;20036;-67
2023/04/26 07:58:25;;;;;;;0.70;0.52;;;8.90;99.90;;;;;;5087843;28;20139;-67
2023/04/26 08:00:51;;;;;;;3.10;0.40;;;9.10;99.90;;;;;;5088542;28;20036;-66
2023/04/26 08:03:17;;;;;;;0.52;0.20;;;9.20;99.90;;;;;;5087921;28;20043;-67
2023/04/26 08:05:43;;;;;;;0.20;0.20;;;9.30;99.90;;;;;;5087685;28;20070;-67
2023/04/26 08:08:08;;;;;;;0.25;0.20;;;9.40;99.90;;;;;;5070995;28;20131;-66
2023/04/26 08:10:34;;;;;;;0.30;0.30;;;9.30;99.90;;;;;;5087975;28;20126;-66
2023/04/26 08:13:02;;;;;;;0.82;0.57;;;9.20;99.90;;;;;;5087001;28;20048;-66
2023/04/26 08:15:28;;;;;;;1.08;0.40;;;9.20;99.90;;;;;;5089190;28;20032;-66
2023/04/26 08:17:54;;;;;;;0.30;0.30;;;9.30;99.90;;;;;;5087877;28;20036;-66
2023/04/26 08:20:20;;;;;;;0.15;0.15;;;9.30;99.90;;;;;;5086992;28;20517;-67
2023/04/26 08:22:46;;;;;;;0.10;0.10;;;9.50;99.90;;;;;;5070721;28;20090;-67
2023/04/26 08:25:12;;;;;;;1.75;0.35;;;9.80;99.90;;;;;;5087499;28;20039;-67
2023/04/26 08:27:38;;;;;;;0.20;0.20;;;10.30;99.90;;;;;;5087448;28;20043;-66
2023/04/26 08:30:05;;;;;;;0.32;0.32;;;10.60;99.90;;;;;;5087454;28;20040;-66
2023/04/26 08:32:32;;;;;;;0.52;0.47;;;10.80;99.90;;;;;;5087352;28;20047;-66
2023/04/26 08:34:59;;;;;;;0.32;0.30;;;11.00;99.90;;;;;;5086885;28;20089;-67
2023/04/26 08:37:24;;;;;;;1.10;0.70;;;11.10;99.90;;;;;;5087867;28;20043;-66
2023/04/26 08:39:50;;;;;;;0.55;0.30;;;11.10;99.90;;;;;;5087713;28;20093;-67
2023/04/26 08:42:16;;;;;;;0.90;0.40;;;11.10;99.90;;;;;;5088389;28;20474;-66
2023/04/26 08:44:43;;;;;;;0.32;0.32;;;11.00;99.90;;;;;;5089003;28;20116;-66
2023/04/26 08:47:15;;;;;;;0.43;0.40;;;10.90;99.90;;;;;;5088907;28;20409;-67
2023/04/26 08:49:58;;;;;;;0.90;0.40;;;10.90;99.90;;;;;;5089997;28;20036;-65
2023/04/26 08:52:26;;;;;;;1.77;0.38;;;10.80;99.90;;;;;;5091336;28;20097;-66
2023/04/26 08:54:53;;;;;;;2.38;0.60;;;10.80;99.90;;;;;;5091952;28;20052;-65
2023/04/26 08:57:20;;;;;;;1.08;0.40;;;10.80;99.90;;;;;;5092616;28;20043;-66
2023/04/26 08:59:46;;;;;;;1.23;0.43;;;10.50;99.90;;;;;;5092865;28;20498;-65
2023/04/26 09:02:19;;;;;;;1.30;0.73;;;10.20;99.90;;;;;;5092179;28;20371;-65
2023/04/26 09:04:46;;;;;;;0.60;0.60;;;9.70;99.90;;;;;;5074177;28;20040;-65
2023/04/26 09:07:20;;;;;;;0.57;0.52;;;9.40;99.90;;;;;;5108524;28;20101;-65
2023/04/26 09:09:50;;;;;;;0.75;0.40;;;9.10;99.90;;;;;;5090818;28;20040;-67
2023/04/26 09:12:20;;;;;;;0.40;0.30;;;8.90;99.90;;;;;;5090831;28;20561;-66
2023/04/26 09:14:46;;;;;;;2.00;0.55;;;8.80;99.90;;;;;;5092271;28;20043;-67
2023/04/26 09:17:33;;;;;;;0.80;0.40;;;8.80;99.90;;;;;;5090557;28;20051;-67
2023/04/26 09:20:00;;;;;;;0.85;0.30;;;8.80;99.90;;;;;;5092823;28;20044;-66
2023/04/26 09:22:36;;;;;;;0.45;0.32;;;9.00;99.90;;;;;;5090902;28;20044;-66
2023/04/26 09:25:04;;;;;;;1.85;0.20;;;9.40;99.90;;;;;;5090829;28;20040;-67
2023/04/26 09:27:36;;;;;;;0.65;0.25;;;9.50;99.90;;;;;;5090734;28;20047;-66
2023/04/26 09:30:16;;;;;;;1.13;0.35;;;9.50;99.90;;;;;;5073175;28;20489;-66
2023/04/26 09:32:53;;;;;;;0.63;0.30;;;9.40;99.90;;;;;;5090635;28;20517;-65
2023/04/26 09:35:35;;;;;;;0.38;0.30;;;9.30;99.90;;;;;;5090870;28;20406;-66
2023/04/26 09:38:08;;;;;;;0.95;0.73;;;9.30;99.90;;;;;;5090007;28;20040;-67
2023/04/26 09:40:40;;;;;;;0.68;0.47;;;9.50;99.90;;;;;;5107750;28;20470;-67
2023/04/26 09:43:19;;;;;;;0.88;0.40;;;9.70;99.90;;;;;;5090579;28;20050;-66
2023/04/26 09:45:45;;;;;;;0.88;0.45;;;9.90;99.90;;;;;;5091399;28;20044;-67
2023/04/26 09:48:15;;;;;;;2.60;0.95;;;9.90;99.90;;;;;;5091998;28;20040;-67
2023/04/26 09:50:43;;;;;;;2.28;0.75;;;9.90;99.90;;;;;;5090152;28;20040;-67
2023/04/26 09:53:09;;;;;;;1.45;0.75;;;9.90;99.90;;;;;;5091515;28;20048;-67
2023/04/26 09:55:35;;;;;;;0.70;0.40;;;10.00;99.90;;;;;;5090194;28;20045;-67
2023/04/26 09:58:08;;;;;;;0.30;0.30;;;10.10;99.90;;;;;;5072772;28;20047;-68
2023/04/26 10:00:37;;;;;;;0.90;0.40;;;10.30;99.90;;;;;;5090291;28;20162;-67
2023/04/26 10:03:04;;;;;;;1.25;0.40;;;10.30;99.90;;;;;;5091435;28;20509;-67
2023/04/26 10:05:31;;;;;;;0.77;0.50;;;10.30;99.90;;;;;;5091032;28;20675;-67
2023/04/26 10:07:57;;;;;;;0.28;0.20;;;10.50;99.90;;;;;;5090271;28;20040;-67
2023/04/26 10:10:23;;;;;;;0.65;0.45;;;11.00;99.90;;;;;;5091504;28;20455;-67
2023/04/26 10:12:49;;;;;;;0.30;0.20;;;11.80;99.90;;;;;;5090525;28;20519;-67
2023/04/26 10:15:15;;;;;;;1.13;0.40;;;12.50;99.90;;;;;;5089812;28;20055;-67
2023/04/26 10:17:40;;;;;;;1.65;0.57;;;13.10;99.90;;;;;;5089866;28;20044;-67
2023/04/26 10:20:12;;;;;;;0.45;0.30;;;13.50;99.90;;;;;;5090784;28;20050;-67
2023/04/26 10:22:49;;;;;;;0.57;0.47;;;13.20;99.90;;;;;;5091361;28;20036;-67
2023/04/26 10:25:14;;;;;;;1.05;0.55;;;12.60;99.90;;;;;;5089791;28;20141;-67
2023/04/26 10:27:50;;;;;;;0.85;0.40;;;12.00;99.90;;;;;;5088979;28;20082;-67
2023/04/26 10:30:18;;;;;;;0.70;0.52;;;11.40;99.90;;;;;;5090119;28;20455;-67
2023/04/26 10:32:59;;;;;;;1.75;0.65;;;11.10;99.90;;;;;;5105741;28;20560;-67
2023/04/26 10:35:26;;;;;;;5.07;0.52;;;10.90;99.90;;;;;;5089968;28;20036;-67
2023/04/26 10:38:01;;;;;;;1.08;0.60;;;10.80;99.90;;;;;;5089389;28;20036;-67
2023/04/26 10:40:33;;;;;;;0.47;0.40;;;10.60;99.90;;;;;;5090356;28;20042;-67
2023/04/26 10:43:14;;;;;;;0.80;0.60;;;10.40;99.90;;;;;;5089540;28;20046;-66
2023/04/26 10:45:48;;;;;;;1.13;0.68;;;10.20;99.90;;;;;;5090671;28;20066;-67
2023/04/26 10:48:17;;;;;;;1.42;0.68;;;10.00;99.90;;;;;;5105863;28;20119;-66
2023/04/26 10:51:00;;;;;;;1.05;0.50;;;9.80;99.90;;;;;;5089315;28;20319;-67
2023/04/26 10:53:46;;;;;;;2.53;0.68;;;9.60;99.90;;;;;;5089166;28;20122;-67
2023/04/26 10:56:24;;;;;;;0.60;0.30;;;9.50;99.90;;;;;;5075304;28;20139;-67
2023/04/26 10:59:10;;;;;;;0.85;0.45;;;9.40;99.90;;;;;;5089008;28;20047;-66
2023/04/26 11:01:37;;;;;;;0.57;0.38;;;9.50;99.90;;;;;;5089626;28;20075;-67
2023/04/26 11:04:12;;;;;;;0.77;0.47;;;9.50;99.90;;;;;;5089445;28;20611;-67
2023/04/26 11:06:53;;;;;;;0.93;0.47;;;9.60;99.90;;;;;;5090166;28;20040;-66
2023/04/26 11:09:35;;;;;;;1.02;0.52;;;9.50;99.90;;;;;;5089684;28;20036;-67
2023/04/26 11:12:12;;;;;;;1.40;0.70;;;9.40;99.90;;;;;;5088237;28;20052;-67
2023/04/26 11:14:40;;;;;;;0.75;0.60;;;9.20;99.90;;;;;;5089874;28;20078;-67
2023/04/26 11:17:07;;;;;;;0.40;0.30;;;9.00;99.90;;;;;;5088994;28;20047;-67
2023/04/26 11:19:33;;;;;;;0.88;0.32;;;8.90;99.90;;;;;;5089013;28;20452;-67
2023/04/26 11:22:00;;;;;;;1.10;0.40;;;8.80;99.90;;;;;;5071144;28;20036;-67
2023/04/26 11:24:30;;;;;;;0.85;0.57;;;8.70;99.90;;;;;;5089998;28;20693;-67
2023/04/26 11:26:57;;;;;;;;;;;8.70;99.90;;;;;;5089211;28;20441;-67
2023/04/26 11:29:23;;;;;;;0.50;0.50;;;8.80;99.90;;;;;;5089151;28;19916;-67
2023/04/26 11:31:57;;;;;;;0.45;0.30;;;8.80;99.90;;;;;;5088539;28;20074;-67
2023/04/26 11:34:34;;;;;;;0.63;0.30;;;8.90;99.90;;;;;;5088586;28;20075;-66
2023/04/26 11:37:04;;;;;;;0.52;0.45;;;9.00;99.90;;;;;;5089313;28;20039;-67
2023/04/26 11:39:33;;;;;;;;;;;9.00;99.90;;;;;;5090279;28;20086;-67
2023/04/26 11:42:10;;;;;;;0.57;0.47;;;9.10;99.90;;;;;;5088400;28;20289;-67
2023/04/26 11:44:36;;;;;;;0.82;0.40;;;9.40;99.90;;;;;;5088114;28;20043;-66
2023/04/26 11:47:04;;;;;;;0.85;0.50;;;9.90;99.90;;;;;;5090916;28;20097;-67
2023/04/26 11:49:35;;;;;;;0.35;0.30;;;10.50;99.90;;;;;;5090839;28;20040;-67
2023/04/26 11:52:03;;;;;;;1.83;0.73;;;11.10;99.90;;;;;;5105214;28;20040;-67
2023/04/26 11:54:34;;;;;;;1.05;0.60;;;11.60;99.90;;;;;;5105316;28;20040;-67
2023/04/26 11:57:01;;;;;;;1.70;0.55;;;11.80;99.90;;;;;;5089084;28;20032;-67
2023/04/26 11:59:28;;;;;;;0.90;0.43;;;11.90;99.90;;;;;;5089537;28;20127;-67
2023/04/26 12:02:00;;;;;;;1.58;0.60;;;11.90;99.90;;;;;;5087850;28;20559;-67
2023/04/26 12:04:30;;;;;;;0.68;0.55;;;11.90;99.90;;;;;;5087457;28;20120;-67
2023/04/26 12:06:56;;;;;;;0.85;0.50;;;11.80;99.90;;;;;;5088076;28;20464;-67
2023/04/26 12:09:30;;;;;;;0.75;0.50;;;11.70;99.90;;;;;;5087749;28;20559;-67
2023/04/26 12:12:07;;;;;;;0.85;0.55;;;11.70;99.90;;;;;;5088293;28;20409;-67
2023/04/26 12:14:37;;;;;;;0.70;0.40;;;11.90;99.90;;;;;;5087372;28;20047;-67
2023/04/26 12:17:05;;;;;;;0.77;0.43;;;12.00;99.90;;;;;;5089207;28;20433;-68
2023/04/26 12:19:35;;;;;;;0.80;0.30;;;12.00;99.90;;;;;;5087278;28;20036;-67
2023/04/26 12:22:01;;;;;;;0.60;0.45;;;12.00;99.90;;;;;;5087960;28;20036;-67
2023/04/26 12:24:35;;;;;;;1.05;0.70;;;12.00;99.90;;;;;;5086929;28;20101;-67
2023/04/26 12:27:03;;;;;;;0.63;0.57;;;11.80;99.90;;;;;;5088990;28;20494;-67
2023/04/26 12:29:30;;;;;;;1.10;0.52;;;11.60;99.90;;;;;;5087605;28;20050;-66
2023/04/26 12:31:59;;;;;;;2.45;0.80;;;11.20;99.90;;;;;;5086850;28;20494;-65
2023/04/26 12:34:25;;;;;;;0.77;0.52;;;10.80;99.90;;;;;;5087662;28;20528;-67
2023/04/26 12:36:50;;;;;;;0.70;0.30;;;10.30;99.90;;;;;;5087748;28;20040;-67
2023/04/26 12:39:16;;;;;;;1.27;0.52;;;10.10;99.90;;;;;;5087049;28;20443;-67
2023/04/26 12:41:43;;;;;;;1.17;0.40;;;10.00;99.90;;;;;;5088945;28;20441;-67
2023/04/26 12:44:10;;;;;;;0.52;0.30;;;10.00;99.90;;;;;;5089215;28;20381;-67
2023/04/26 12:46:36;;;;;;;0.93;0.40;;;10.10;99.90;;;;;;5088527;28;20119;-67
2023/04/26 12:49:02;;;;;;;2.60;0.82;;;10.10;99.90;;;;;;5088911;28;20119;-67
2023/04/26 12:51:28;;;;;;;4.25;0.95;;;10.10;99.90;;;;;;5088635;28;20036;-67
2023/04/26 12:53:54;;;;;;;0.70;0.40;;;10.20;99.90;;;;;;5088092;28;20513;-67
2023/04/26 12:56:21;;;;;;;0.85;0.40;;;10.30;99.90;;;;;;5087539;28;20143;-67